Time;durP1;ratioP1;P1;durP2;ratioP2;P2;SDS_P1;SDS_P2;PMS_P1;PMS_P2;Temp;Humidity;BMP_temperature;BMP_pressure;BME280_temperature;BME280_humidity;BME280_pressure;Samples;Min_cycle;Max_cycle;Signal;HPM_P1;HPM_P2
2023/09/19 00:00:27;;;;;;;1.43;1.10;;;23.00;99.40;;;;;;5007141;28;20460;-85
2023/09/19 00:02:59;;;;;;;2.97;1.23;;;22.90;99.50;;;;;;4995895;28;20197;-85
2023/09/19 00:05:29;;;;;;;2.13;1.30;;;22.90;99.30;;;;;;5007693;28;20551;-85
2023/09/19 00:07:58;;;;;;;2.40;1.40;;;22.90;99.30;;;;;;4975908;28;20236;-85
2023/09/19 00:10:24;;;;;;;1.50;1.30;;;22.90;99.40;;;;;;5019687;28;20201;-86
2023/09/19 00:12:53;;;;;;;3.83;1.30;;;22.90;99.30;;;;;;4997787;28;20243;-85
2023/09/19 00:15:20;;;;;;;2.83;1.83;;;22.90;99.30;;;;;;5004479;28;20212;-85
2023/09/19 00:17:47;;;;;;;2.43;1.40;;;22.90;99.30;;;;;;4999810;28;20189;-85
2023/09/19 00:20:17;;;;;;;2.07;1.40;;;22.90;99.30;;;;;;5001795;28;20180;-86
2023/09/19 00:22:43;;;;;;;2.87;1.50;;;22.90;99.30;;;;;;5035213;28;20177;-85
2023/09/19 00:25:10;;;;;;;2.53;1.50;;;22.90;99.30;;;;;;4999169;28;20165;-85
2023/09/19 00:27:41;;;;;;;1.73;1.30;;;22.90;99.30;;;;;;5025318;28;20324;-85
2023/09/19 00:30:09;;;;;;;2.30;1.40;;;22.90;99.10;;;;;;5031010;28;20172;-85
2023/09/19 00:32:34;;;;;;;2.60;1.37;;;22.90;99.40;;;;;;5023934;28;20192;-85
2023/09/19 00:35:00;;;;;;;3.13;1.40;;;22.90;99.40;;;;;;5014913;28;20207;-85
2023/09/19 00:37:26;;;;;;;1.90;1.17;;;22.80;99.00;;;;;;5037444;28;20181;-85
2023/09/19 00:39:52;;;;;;;3.00;1.47;;;22.80;99.40;;;;;;5014864;28;20173;-85
2023/09/19 00:42:20;;;;;;;4.13;1.57;;;22.80;99.40;;;;;;5008733;28;20343;-86
2023/09/19 00:44:51;;;;;;;3.73;1.50;;;22.80;99.20;;;;;;5013068;28;20506;-86
2023/09/19 00:47:18;;;;;;;2.70;1.60;;;22.80;99.30;;;;;;5008056;28;20174;-85
2023/09/19 00:49:50;;;;;;;1.97;1.40;;;22.80;99.20;;;;;;4996185;28;20236;-85
2023/09/19 00:52:19;;;;;;;4.20;1.40;;;22.70;99.20;;;;;;5012434;28;20199;-85
2023/09/19 00:54:47;;;;;;;5.30;1.60;;;22.70;99.20;;;;;;4996442;28;20181;-85
2023/09/19 00:57:14;;;;;;;2.60;1.27;;;22.70;99.10;;;;;;5007265;28;20489;-86
2023/09/19 00:59:42;;;;;;;2.17;1.40;;;22.70;99.10;;;;;;4995986;28;20180;-86
2023/09/19 01:02:08;;;;;;;4.27;1.33;;;22.70;99.30;;;;;;5022896;28;20173;-85
2023/09/19 01:04:46;;;;;;;2.70;1.43;;;22.70;99.00;;;;;;4997178;28;20230;-86
2023/09/19 01:07:22;;;;;;;2.73;1.50;;;22.70;99.10;;;;;;4997682;28;20188;-86
2023/09/19 01:09:49;;;;;;;3.80;1.60;;;22.60;99.30;;;;;;5013996;28;20199;-86
2023/09/19 01:12:40;;;;;;;2.87;1.30;;;22.70;99.10;;;;;;5003724;28;20184;-85
2023/09/19 01:15:40;;;;;;;2.03;1.30;;;22.70;99.20;;;;;;5012235;28;20184;-85
2023/09/19 01:18:14;;;;;;;3.03;1.60;;;22.70;99.10;;;;;;5011611;28;20178;-85
2023/09/19 01:21:15;;;;;;;2.67;1.47;;;22.70;99.20;;;;;;5029827;28;20164;-86
2023/09/19 01:23:56;;;;;;;3.80;1.70;;;22.70;99.50;;;;;;5001688;28;20392;-86
2023/09/19 01:26:27;;;;;;;2.13;1.40;;;22.60;98.70;;;;;;4989916;28;20510;-85
2023/09/19 01:28:54;;;;;;;3.80;1.40;;;22.60;99.50;;;;;;5016978;28;20188;-86
2023/09/19 01:31:23;;;;;;;3.33;1.40;;;22.60;99.40;;;;;;5007982;28;20276;-86
2023/09/19 01:34:01;;;;;;;2.93;1.53;;;22.60;99.40;;;;;;5003586;28;20174;-86
2023/09/19 01:36:29;;;;;;;3.10;1.43;;;22.60;99.20;;;;;;5009859;28;20340;-85
2023/09/19 01:38:57;;;;;;;3.40;1.80;;;22.60;99.30;;;;;;5003966;28;20500;-86
2023/09/19 01:41:37;;;;;;;2.37;1.50;;;22.60;99.30;;;;;;5018994;28;20240;-85
2023/09/19 01:44:08;;;;;;;5.50;2.37;;;22.60;99.40;;;;;;4999055;28;20168;-85
2023/09/19 01:46:37;;;;;;;3.80;1.30;;;22.60;98.50;;;;;;5044444;28;20256;-85
2023/09/19 01:49:27;;;;;;;3.40;1.80;;;22.60;99.40;;;;;;4999303;28;20213;-85
2023/09/19 01:52:13;;;;;;;3.43;1.77;;;22.60;98.90;;;;;;5013266;28;20239;-85
2023/09/19 01:54:51;;;;;;;3.40;1.50;;;22.50;99.50;;;;;;5002294;28;20215;-85
2023/09/19 01:57:29;;;;;;;2.90;1.30;;;22.60;99.30;;;;;;5014757;28;20219;-85
2023/09/19 02:00:18;;;;;;;3.50;1.50;;;22.50;99.30;;;;;;5002923;28;20162;-86
2023/09/19 02:02:47;;;;;;;4.97;1.90;;;22.60;99.20;;;;;;4996141;28;21288;-85
2023/09/19 02:05:21;;;;;;;1.97;1.40;;;22.60;99.20;;;;;;5004750;28;20169;-85
2023/09/19 02:07:49;;;;;;;2.93;1.70;;;22.50;98.80;;;;;;5013145;28;20421;-86
2023/09/19 02:10:20;;;;;;;2.50;1.53;;;22.50;99.50;;;;;;5000636;28;20178;-86
2023/09/19 02:12:46;;;;;;;3.93;1.47;;;22.50;99.00;;;;;;4994290;28;20185;-85
2023/09/19 02:15:12;;;;;;;5.10;1.43;;;22.50;99.00;;;;;;5003356;28;20170;-86
2023/09/19 02:17:38;;;;;;;4.13;1.70;;;22.40;99.40;;;;;;5009468;28;20524;-85
2023/09/19 02:20:14;;;;;;;3.03;1.40;;;22.40;99.20;;;;;;5009878;28;20255;-85
2023/09/19 02:22:44;;;;;;;4.60;1.70;;;22.40;99.10;;;;;;4997319;28;20181;-85
2023/09/19 02:25:10;;;;;;;4.20;1.40;;;22.50;99.20;;;;;;5010040;28;20165;-85
2023/09/19 02:27:37;;;;;;;3.60;1.80;;;22.40;99.00;;;;;;4998200;28;20176;-86
2023/09/19 02:30:03;;;;;;;2.80;1.70;;;22.40;99.10;;;;;;5009062;28;20169;-86
2023/09/19 02:32:30;;;;;;;4.27;1.47;;;22.40;99.10;;;;;;4999429;28;20447;-86
2023/09/19 02:34:58;;;;;;;4.60;2.17;;;22.40;99.10;;;;;;5006086;28;20279;-86
2023/09/19 02:37:24;;;;;;;4.17;1.70;;;22.40;98.80;;;;;;5000275;28;20201;-86
2023/09/19 02:39:50;;;;;;;6.20;1.80;;;22.40;98.90;;;;;;5002140;28;20699;-85
2023/09/19 02:42:15;;;;;;;4.33;1.90;;;22.30;98.80;;;;;;4997962;28;20174;-86
2023/09/19 02:44:41;;;;;;;3.50;1.57;;;22.30;98.80;;;;;;4999785;28;20241;-85
2023/09/19 02:47:07;;;;;;;5.13;1.60;;;22.40;98.50;;;;;;5004313;28;20183;-86
2023/09/19 02:49:33;;;;;;;5.47;1.80;;;22.30;98.80;;;;;;4998767;28;20452;-85
2023/09/19 02:51:59;;;;;;;4.17;1.80;;;22.30;97.80;;;;;;5007236;28;20170;-86
2023/09/19 02:54:25;;;;;;;3.97;1.63;;;22.30;98.50;;;;;;5013774;28;20207;-86
2023/09/19 02:56:53;;;;;;;2.03;1.20;;;22.30;98.90;;;;;;5024893;28;20220;-86
2023/09/19 02:59:24;;;;;;;4.00;1.80;;;22.40;98.90;;;;;;5012597;28;20154;-86
2023/09/19 03:01:50;;;;;;;4.43;1.70;;;22.30;98.70;;;;;;5018893;28;20259;-86
2023/09/19 03:04:28;;;;;;;2.87;1.83;;;22.30;98.70;;;;;;5032172;28;20150;-86
2023/09/19 03:07:00;;;;;;;3.47;1.90;;;22.30;98.70;;;;;;5008676;28;20277;-86
2023/09/19 03:09:40;;;;;;;6.00;1.80;;;22.30;98.80;;;;;;4997353;28;20769;-86
2023/09/19 03:12:10;;;;;;;3.87;1.70;;;22.30;98.70;;;;;;5009761;28;20188;-86
2023/09/19 03:14:36;;;;;;;3.83;1.60;;;22.30;98.40;;;;;;4998625;28;20232;-85
2023/09/19 03:17:09;;;;;;;3.70;1.93;;;22.30;98.60;;;;;;5010931;28;20524;-86
2023/09/19 03:19:39;;;;;;;4.13;1.70;;;22.30;98.70;;;;;;4997626;28;20564;-86
2023/09/19 03:22:08;;;;;;;5.17;1.90;;;22.30;98.60;;;;;;5027556;28;20274;-86
2023/09/19 03:24:46;;;;;;;4.00;1.80;;;22.20;98.50;;;;;;4999321;28;20318;-86
2023/09/19 03:27:15;;;;;;;2.67;1.53;;;22.20;98.50;;;;;;5010001;28;20180;-86
2023/09/19 03:29:42;;;;;;;5.67;1.80;;;22.30;98.50;;;;;;4995794;28;20173;-86
2023/09/19 03:32:11;;;;;;;3.17;1.40;;;22.30;98.30;;;;;;5024661;28;20177;-86
2023/09/19 03:34:42;;;;;;;4.00;1.70;;;22.20;98.60;;;;;;5013831;28;20169;-86
2023/09/19 03:37:09;;;;;;;3.33;1.60;;;22.20;98.20;;;;;;5006142;28;20205;-86
2023/09/19 03:39:35;;;;;;;3.87;1.60;;;22.20;98.30;;;;;;5015765;28;20166;-86
2023/09/19 03:42:06;;;;;;;3.00;1.80;;;22.20;98.30;;;;;;5000621;28;20265;-86
2023/09/19 03:44:32;;;;;;;4.90;1.80;;;22.20;98.40;;;;;;5027624;28;20212;-87
2023/09/19 03:46:58;;;;;;;4.27;1.50;;;22.10;98.20;;;;;;5009218;28;20564;-86
2023/09/19 03:49:24;;;;;;;3.33;1.40;;;22.10;97.80;;;;;;5008767;28;20177;-86
2023/09/19 03:51:50;;;;;;;4.47;1.87;;;22.10;98.20;;;;;;5012296;28;20178;-86
2023/09/19 03:54:16;;;;;;;5.13;1.90;;;22.10;98.10;;;;;;5004427;28;20195;-86
2023/09/19 03:56:43;;;;;;;4.67;2.00;;;22.10;98.10;;;;;;5046873;28;20207;-86
2023/09/19 03:59:09;;;;;;;3.97;1.53;;;22.10;98.00;;;;;;5036982;28;20173;-86
2023/09/19 04:01:35;;;;;;;3.97;1.53;;;22.10;98.10;;;;;;5046338;28;20199;-86
2023/09/19 04:04:08;;;;;;;5.30;1.60;;;22.10;98.10;;;;;;5004757;28;20461;-87
2023/09/19 04:06:37;;;;;;;6.67;2.00;;;22.10;97.90;;;;;;5048599;28;20179;-86
2023/09/19 04:09:03;;;;;;;3.77;2.00;;;22.00;98.00;;;;;;5002228;28;20207;-87
2023/09/19 04:11:30;;;;;;;5.47;2.00;;;22.10;97.70;;;;;;5013914;28;20461;-86
2023/09/19 04:13:57;;;;;;;6.00;2.07;;;22.10;97.70;;;;;;5001769;28;20570;-86
2023/09/19 04:16:33;;;;;;;4.03;1.80;;;22.10;98.00;;;;;;5013695;28;20255;-87
2023/09/19 04:18:59;;;;;;;6.07;1.83;;;22.10;97.90;;;;;;5036426;28;20199;-86
2023/09/19 04:21:24;;;;;;;5.73;1.87;;;22.10;97.80;;;;;;5014808;28;20577;-86
2023/09/19 04:23:50;;;;;;;3.40;1.63;;;22.00;98.00;;;;;;5001779;28;20167;-86
2023/09/19 04:26:16;;;;;;;3.73;1.63;;;22.00;97.90;;;;;;5013507;28;20201;-86
2023/09/19 04:28:43;;;;;;;5.17;2.00;;;22.00;98.00;;;;;;5006654;28;20380;-86
2023/09/19 04:31:10;;;;;;;3.83;1.87;;;22.00;97.80;;;;;;5010037;28;20181;-86
2023/09/19 04:33:35;;;;;;;4.13;1.77;;;22.00;98.00;;;;;;5008713;28;20170;-86
2023/09/19 04:36:05;;;;;;;5.67;2.20;;;22.00;97.90;;;;;;5024929;28;20262;-86
2023/09/19 04:38:31;;;;;;;4.80;1.80;;;22.00;98.00;;;;;;5027868;28;20813;-87
2023/09/19 04:41:00;;;;;;;4.63;2.00;;;22.00;98.00;;;;;;4998311;28;20165;-86
2023/09/19 04:43:26;;;;;;;3.63;1.80;;;22.00;97.90;;;;;;4995413;28;20209;-86
2023/09/19 04:45:55;;;;;;;4.97;1.80;;;22.00;97.90;;;;;;5003831;28;20179;-86
2023/09/19 04:48:25;;;;;;;6.63;1.90;;;22.00;97.80;;;;;;4993761;28;20532;-86
2023/09/19 04:50:51;;;;;;;4.50;1.80;;;22.00;97.80;;;;;;5019495;28;20201;-86
2023/09/19 04:53:20;;;;;;;7.80;1.87;;;21.90;98.00;;;;;;4994581;28;20174;-86
2023/09/19 04:55:49;;;;;;;4.37;1.60;;;21.90;98.00;;;;;;5004722;28;20471;-86
2023/09/19 04:58:15;;;;;;;3.03;1.87;;;21.90;97.90;;;;;;4975828;28;20185;-86
2023/09/19 05:00:56;;;;;;;3.60;1.70;;;21.90;98.10;;;;;;5006709;28;20166;-87
2023/09/19 05:03:22;;;;;;;3.27;1.63;;;21.80;97.90;;;;;;4993456;28;20578;-85
2023/09/19 05:05:48;;;;;;;4.80;2.00;;;21.90;98.00;;;;;;5006777;28;20555;-84
2023/09/19 05:08:14;;;;;;;5.80;1.80;;;21.90;98.10;;;;;;4994168;28;20181;-85
2023/09/19 05:10:45;;;;;;;5.13;1.90;;;21.90;98.00;;;;;;5005622;28;20239;-84
2023/09/19 05:13:24;;;;;;;4.70;1.77;;;21.90;98.50;;;;;;4993194;28;20191;-85
2023/09/19 05:15:50;;;;;;;4.80;1.63;;;22.00;98.40;;;;;;5022564;28;20209;-85
2023/09/19 05:18:16;;;;;;;3.47;1.53;;;21.90;98.20;;;;;;4993458;28;20180;-85
2023/09/19 05:20:49;;;;;;;3.80;1.70;;;22.00;98.30;;;;;;5002649;28;20618;-84
2023/09/19 05:23:15;;;;;;;4.80;2.00;;;21.90;98.10;;;;;;4991152;28;20513;-85
2023/09/19 05:25:42;;;;;;;8.13;2.47;;;21.90;98.00;;;;;;5001323;28;20576;-85
2023/09/19 05:28:12;;;;;;;4.77;1.80;;;22.00;98.00;;;;;;4994384;28;20182;-86
2023/09/19 05:30:42;;;;;;;4.50;2.07;;;22.00;97.90;;;;;;4997345;28;20566;-86
2023/09/19 05:33:08;;;;;;;6.47;2.30;;;22.00;97.90;;;;;;5011478;28;20173;-86
2023/09/19 05:35:39;;;;;;;3.90;1.70;;;22.00;97.60;;;;;;4995811;28;20296;-86
2023/09/19 05:38:13;;;;;;;3.57;2.20;;;22.00;97.50;;;;;;5030638;28;20200;-86
2023/09/19 05:40:42;;;;;;;3.83;1.93;;;21.90;97.20;;;;;;4993104;28;20192;-86
2023/09/19 05:43:11;;;;;;;8.30;2.23;;;21.90;97.10;;;;;;5017275;28;20409;-84
2023/09/19 05:45:42;;;;;;;5.97;2.43;;;21.90;97.10;;;;;;5008385;28;20272;-87
2023/09/19 05:48:20;;;;;;;6.10;2.13;;;21.90;97.00;;;;;;4995460;28;20603;-86
2023/09/19 05:50:53;;;;;;;5.40;1.63;;;21.80;96.80;;;;;;4992842;28;20868;-87
2023/09/19 05:53:19;;;;;;;6.13;2.17;;;21.80;96.70;;;;;;5017854;28;20285;-87
2023/09/19 05:55:45;;;;;;;5.53;2.20;;;21.80;96.70;;;;;;4996367;28;20200;-86
2023/09/19 05:58:23;;;;;;;4.37;2.10;;;21.80;96.50;;;;;;5005540;28;20370;-87
2023/09/19 06:00:57;;;;;;;7.77;2.00;;;21.80;96.40;;;;;;4998388;28;20234;-86
2023/09/19 06:03:23;;;;;;;6.50;2.07;;;21.80;96.50;;;;;;5024196;28;20168;-86
2023/09/19 06:05:49;;;;;;;4.37;1.93;;;21.80;96.40;;;;;;5015146;28;20185;-86
2023/09/19 06:08:17;;;;;;;8.00;2.53;;;21.80;96.10;;;;;;5007521;28;20201;-87
2023/09/19 06:10:43;;;;;;;5.63;2.00;;;21.80;96.20;;;;;;4994495;28;20350;-86
2023/09/19 06:13:10;;;;;;;6.20;2.30;;;21.80;96.00;;;;;;5000868;28;20200;-87
2023/09/19 06:15:36;;;;;;;5.57;2.33;;;21.80;95.90;;;;;;5046342;28;20254;-86
2023/09/19 06:18:04;;;;;;;4.43;2.00;;;21.80;95.80;;;;;;4999631;28;20488;-87
2023/09/19 06:20:31;;;;;;;5.40;2.23;;;21.80;96.10;;;;;;5013801;28;20424;-87
2023/09/19 06:22:57;;;;;;;6.33;2.10;;;21.80;96.00;;;;;;5010404;28;20206;-87
2023/09/19 06:25:23;;;;;;;5.67;2.47;;;21.80;96.00;;;;;;4994897;28;20173;-87
2023/09/19 06:28:03;;;;;;;3.87;2.10;;;21.80;96.20;;;;;;5003527;28;20520;-87
2023/09/19 06:30:39;;;;;;;7.03;2.07;;;21.80;95.90;;;;;;4994337;28;20342;-87
2023/09/19 06:33:06;;;;;;;7.43;2.27;;;21.70;95.90;;;;;;5003942;28;20267;-86
2023/09/19 06:35:34;;;;;;;6.37;2.27;;;21.70;95.80;;;;;;4994628;28;20348;-87
2023/09/19 06:38:04;;;;;;;5.47;2.30;;;21.70;95.70;;;;;;5000781;28;20188;-88
2023/09/19 06:40:30;;;;;;;6.90;2.40;;;21.70;95.70;;;;;;5000510;28;20581;-87
2023/09/19 06:42:57;;;;;;;7.60;2.43;;;21.70;95.70;;;;;;5006346;28;20478;-87
2023/09/19 06:45:24;;;;;;;7.37;2.40;;;21.70;95.60;;;;;;5025320;28;20177;-87
2023/09/19 06:47:51;;;;;;;5.67;2.10;;;21.70;95.40;;;;;;5009595;28;20522;-87
2023/09/19 06:50:19;;;;;;;6.27;2.07;;;21.70;95.10;;;;;;4995886;28;20224;-87
2023/09/19 06:52:50;;;;;;;5.33;2.27;;;21.60;95.40;;;;;;4996912;28;20166;-87
2023/09/19 06:55:19;;;;;;;4.70;2.30;;;21.60;95.20;;;;;;5021522;28;20513;-88
2023/09/19 06:57:46;;;;;;;5.97;2.03;;;21.60;95.10;;;;;;4995191;28;20753;-87
2023/09/19 07:00:18;;;;;;;4.80;2.23;;;21.60;95.20;;;;;;5005340;28;20216;-88
2023/09/19 07:03:11;;;;;;;6.57;2.27;;;21.60;95.10;;;;;;4996418;28;20188;-87
2023/09/19 07:05:39;;;;;;;7.37;2.20;;;21.60;95.20;;;;;;4991624;28;20184;-87
2023/09/19 07:08:06;;;;;;;7.63;2.20;;;21.60;95.00;;;;;;5006022;28;20199;-87
2023/09/19 07:10:33;;;;;;;6.23;2.07;;;21.70;95.00;;;;;;5000591;28;20194;-88
2023/09/19 07:13:03;;;;;;;7.20;2.50;;;21.70;95.00;;;;;;4993465;28;20458;-87
2023/09/19 07:15:33;;;;;;;7.93;2.43;;;21.70;94.80;;;;;;5002091;28;20239;-88
2023/09/19 07:18:10;;;;;;;5.93;2.30;;;21.70;95.00;;;;;;4999310;28;20374;-87
2023/09/19 07:20:45;;;;;;;4.60;2.07;;;21.70;94.80;;;;;;4993909;28;20251;-86
2023/09/19 07:23:13;;;;;;;6.80;2.20;;;21.70;94.80;;;;;;4994967;28;20232;-87
2023/09/19 07:25:39;;;;;;;6.37;2.30;;;21.70;94.60;;;;;;5011149;28;20242;-87
2023/09/19 07:28:16;;;;;;;6.33;2.03;;;21.70;94.70;;;;;;5012095;28;20173;-88
2023/09/19 07:30:41;;;;;;;5.23;2.13;;;21.70;94.40;;;;;;4998231;28;20169;-86
2023/09/19 07:33:11;;;;;;;5.73;2.30;;;21.70;94.60;;;;;;5011260;28;20477;-87
2023/09/19 07:35:39;;;;;;;7.60;2.23;;;21.70;94.50;;;;;;4998381;28;20221;-87
2023/09/19 07:38:06;;;;;;;7.87;2.40;;;21.70;94.60;;;;;;5026908;28;20246;-88
2023/09/19 07:40:32;;;;;;;7.97;2.40;;;21.70;94.50;;;;;;4997465;28;20255;-88
2023/09/19 07:43:01;;;;;;;4.90;1.80;;;21.80;94.30;;;;;;4990802;28;20332;-88
2023/09/19 07:45:29;;;;;;;7.37;2.37;;;21.80;94.40;;;;;;4999020;28;20453;-87
2023/09/19 07:47:55;;;;;;;8.47;2.30;;;21.80;94.60;;;;;;5024193;28;20174;-88
2023/09/19 07:50:21;;;;;;;4.67;1.97;;;21.80;94.40;;;;;;4998657;28;20184;-86
2023/09/19 07:52:50;;;;;;;6.53;2.30;;;21.80;94.30;;;;;;5013049;28;20174;-87
2023/09/19 07:55:28;;;;;;;5.27;2.10;;;21.80;94.20;;;;;;4995093;28;20205;-88
2023/09/19 07:57:54;;;;;;;3.80;2.07;;;21.80;94.30;;;;;;4993494;28;20276;-87
2023/09/19 08:00:20;;;;;;;6.93;2.20;;;21.80;94.20;;;;;;5012556;28;20267;-87
2023/09/19 08:02:47;;;;;;;5.23;2.30;;;21.80;94.10;;;;;;5031455;28;20174;-88
2023/09/19 08:05:16;;;;;;;6.37;1.97;;;21.80;94.20;;;;;;5009167;28;20554;-87
2023/09/19 08:07:52;;;;;;;4.30;2.50;;;21.80;94.20;;;;;;5001501;28;20209;-88
2023/09/19 08:10:19;;;;;;;5.50;1.90;;;21.80;94.00;;;;;;4992864;28;20173;-87
2023/09/19 08:12:47;;;;;;;6.60;2.10;;;21.80;94.00;;;;;;5035630;28;20181;-87
2023/09/19 08:15:19;;;;;;;5.63;2.20;;;21.90;94.00;;;;;;4990087;28;20169;-87
2023/09/19 08:17:52;;;;;;;6.07;2.00;;;21.80;93.90;;;;;;5019214;28;20185;-89
2023/09/19 08:20:18;;;;;;;5.07;1.90;;;21.80;93.90;;;;;;4990122;28;20197;-88
2023/09/19 08:22:54;;;;;;;6.67;2.10;;;21.90;93.90;;;;;;4999682;28;20580;-87
2023/09/19 08:25:21;;;;;;;6.50;1.93;;;21.90;93.80;;;;;;4990878;28;20317;-88
2023/09/19 08:27:50;;;;;;;6.73;2.13;;;21.90;93.80;;;;;;5016814;28;20215;-89
2023/09/19 08:30:41;;;;;;;6.60;2.20;;;21.90;93.80;;;;;;4990748;28;20551;-88
2023/09/19 08:33:07;;;;;;;4.60;2.00;;;21.90;93.80;;;;;;4994037;28;20405;-88
2023/09/19 08:35:33;;;;;;;6.17;2.37;;;22.00;93.70;;;;;;5009088;28;20180;-88
2023/09/19 08:38:03;;;;;;;5.77;2.23;;;21.90;93.70;;;;;;4996445;28;20177;-89
2023/09/19 08:40:33;;;;;;;6.00;2.30;;;22.00;93.60;;;;;;5003230;28;20180;-88
2023/09/19 08:43:00;;;;;;;7.67;2.10;;;22.00;93.40;;;;;;5000567;28;20636;-89
2023/09/19 08:45:28;;;;;;;7.33;2.30;;;22.10;93.20;;;;;;4989455;28;20205;-88
2023/09/19 08:48:03;;;;;;;6.90;2.10;;;22.20;93.10;;;;;;5001832;28;20460;-88
2023/09/19 08:50:29;;;;;;;7.17;2.20;;;22.30;92.80;;;;;;5006862;28;20588;-88
2023/09/19 08:52:57;;;;;;;5.37;2.40;;;22.30;92.50;;;;;;4993609;28;20174;-88
2023/09/19 08:55:30;;;;;;;4.57;1.93;;;22.40;92.00;;;;;;5008502;28;20176;-88
2023/09/19 08:58:06;;;;;;;7.93;2.20;;;22.50;92.00;;;;;;4997705;28;20280;-88
2023/09/19 09:00:34;;;;;;;5.27;2.10;;;22.50;91.80;;;;;;5007051;28;20216;-89
2023/09/19 09:03:02;;;;;;;6.40;2.33;;;22.60;91.80;;;;;;4997183;28;20276;-89
2023/09/19 09:05:28;;;;;;;6.57;2.37;;;22.60;91.70;;;;;;5004860;28;20416;-89
2023/09/19 09:07:56;;;;;;;6.63;2.20;;;22.60;91.70;;;;;;4997826;28;20174;-89
2023/09/19 09:10:22;;;;;;;5.80;1.97;;;22.60;91.80;;;;;;5002260;28;20312;-89
2023/09/19 09:12:55;;;;;;;4.53;1.93;;;22.60;91.70;;;;;;5003437;28;20579;-90
2023/09/19 09:15:23;;;;;;;6.00;2.10;;;22.60;91.90;;;;;;5001628;28;20173;-89
2023/09/19 09:17:57;;;;;;;11.20;2.40;;;22.60;91.80;;;;;;5001386;28;20247;-90
2023/09/19 09:20:22;;;;;;;7.30;2.13;;;22.60;91.80;;;;;;4991956;28;20215;-89
2023/09/19 09:22:58;;;;;;;8.33;2.53;;;22.60;91.80;;;;;;5007746;28;20528;-89
2023/09/19 09:25:54;;;;;;;6.03;2.30;;;22.60;91.70;;;;;;5028865;28;20177;-89
2023/09/19 09:28:21;;;;;;;5.47;2.30;;;22.60;91.60;;;;;;5008106;28;20169;-89
2023/09/19 09:30:47;;;;;;;6.80;2.10;;;22.70;91.70;;;;;;4993491;28;20189;-89
2023/09/19 09:33:15;;;;;;;5.47;2.27;;;22.70;91.50;;;;;;4991176;28;20173;-88
2023/09/19 09:35:56;;;;;;;5.87;2.33;;;22.70;91.40;;;;;;4996715;28;20492;-88
2023/09/19 09:38:32;;;;;;;5.80;2.30;;;22.80;91.40;;;;;;4990400;28;20181;-88
2023/09/19 09:41:06;;;;;;;4.83;2.10;;;22.80;91.40;;;;;;5015936;28;20255;-89
2023/09/19 09:43:40;;;;;;;6.07;2.20;;;22.70;91.40;;;;;;5000450;28;20330;-89
2023/09/19 09:49:14;;;;;;;8.03;2.50;;;22.70;91.60;;;;;;5018457;28;20176;-90
2023/09/19 09:51:59;;;;;;;5.77;2.03;;;22.70;91.50;;;;;;5001701;28;20611;-89
2023/09/19 09:54:45;;;;;;;4.20;2.10;;;22.70;91.40;;;;;;5004893;28;20578;-88
2023/09/19 09:57:14;;;;;;;5.47;2.40;;;22.70;91.50;;;;;;4990213;28;20220;-89
2023/09/19 09:59:50;;;;;;;3.90;1.97;;;22.80;91.40;;;;;;4994131;28;20196;-89
2023/09/19 10:02:28;;;;;;;7.20;2.50;;;22.90;91.20;;;;;;5023106;28;20166;-88
2023/09/19 10:04:59;;;;;;;5.70;1.97;;;22.90;90.90;;;;;;5009017;28;20169;-89
2023/09/19 10:07:40;;;;;;;6.33;2.20;;;22.90;91.00;;;;;;5003278;28;20279;-89
2023/09/19 10:10:28;;;;;;;6.30;2.40;;;23.00;90.70;;;;;;5000169;28;20178;-89
2023/09/19 10:13:02;;;;;;;6.17;2.30;;;23.00;90.60;;;;;;5024566;28;20606;-89
2023/09/19 10:15:32;;;;;;;6.27;2.03;;;23.10;90.40;;;;;;4998930;28;20595;-89
2023/09/19 10:18:01;;;;;;;4.33;2.30;;;23.10;90.20;;;;;;5006105;28;20184;-89
2023/09/19 10:20:37;;;;;;;6.95;2.53;;;23.10;90.10;;;;;;5005722;28;20176;-90
2023/09/19 10:23:14;;;;;;;5.55;2.05;;;23.10;90.00;;;;;;5023445;28;20272;-89
2023/09/19 10:25:47;;;;;;;6.93;2.30;;;23.10;89.60;;;;;;4995824;28;20258;-89
2023/09/19 10:28:15;;;;;;;6.47;2.40;;;23.10;89.60;;;;;;4988813;28;20472;-89
2023/09/19 10:30:47;;;;;;;5.90;2.35;;;23.20;89.50;;;;;;4989422;28;20723;-89
2023/09/19 10:33:20;;;;;;;4.15;2.40;;;23.20;89.40;;;;;;4999541;28;20165;-89
2023/09/19 10:35:48;;;;;;;5.97;2.50;;;23.10;89.20;;;;;;4996776;28;20215;-89
2023/09/19 10:38:19;;;;;;;5.95;2.20;;;23.10;89.50;;;;;;5003038;28;20253;-89
2023/09/19 10:40:48;;;;;;;4.25;2.00;;;23.00;89.70;;;;;;5009739;28;20177;-88
2023/09/19 10:43:18;;;;;;;7.38;2.17;;;23.00;90.00;;;;;;5008271;28;20479;-89
2023/09/19 10:45:46;;;;;;;6.55;2.30;;;23.00;90.00;;;;;;5005946;28;20255;-88
2023/09/19 10:48:12;;;;;;;6.90;2.28;;;22.90;89.90;;;;;;4999134;28;20168;-89
2023/09/19 10:50:50;;;;;;;5.77;2.53;;;22.90;90.00;;;;;;5006073;28;20204;-88
2023/09/19 10:53:17;;;;;;;7.23;2.33;;;22.80;90.00;;;;;;4998383;28;20180;-90
2023/09/19 10:56:02;;;;;;;8.60;2.83;;;22.80;90.00;;;;;;5004725;28;20172;-89
2023/09/19 10:58:34;;;;;;;7.33;2.30;;;22.80;89.80;;;;;;5009252;28;20172;-90
2023/09/19 11:01:11;;;;;;;5.37;1.97;;;22.80;89.90;;;;;;5007228;28;20185;-88
2023/09/19 11:03:43;;;;;;;5.50;2.27;;;22.80;89.50;;;;;;5002397;28;20173;-89
2023/09/19 11:06:16;;;;;;;3.97;1.90;;;22.80;89.80;;;;;;5044235;28;20197;-89
2023/09/19 11:08:58;;;;;;;6.83;2.33;;;22.80;89.90;;;;;;4990887;28;20417;-88
2023/09/19 11:11:38;;;;;;;6.03;2.03;;;22.80;88.70;;;;;;5009252;28;20471;-89
2023/09/19 11:14:28;;;;;;;7.07;2.23;;;22.70;89.20;;;;;;5029826;28;20272;-90
2023/09/19 11:17:12;;;;;;;6.77;2.57;;;22.70;88.90;;;;;;4994586;28;20233;-89
2023/09/19 11:23:07;;;;;;;5.87;2.27;;;22.80;88.70;;;;;;5012726;28;20409;-89
2023/09/19 11:25:34;;;;;;;6.33;2.20;;;22.80;88.70;;;;;;4980982;28;20179;-90
2023/09/19 11:28:16;;;;;;;5.73;2.20;;;22.80;88.60;;;;;;4984437;28;20247;-90
2023/09/19 11:30:43;;;;;;;5.20;2.00;;;22.70;88.20;;;;;;5020356;28;20203;-89
2023/09/19 11:33:28;;;;;;;7.23;2.20;;;22.70;88.20;;;;;;5010135;28;20172;-88
2023/09/19 11:36:03;;;;;;;7.23;2.10;;;22.70;88.10;;;;;;4965758;28;20331;-90
2023/09/19 11:39:01;;;;;;;5.87;2.30;;;22.70;87.40;;;;;;4988492;28;20272;-88
2023/09/19 11:41:37;;;;;;;4.63;2.20;;;22.70;87.50;;;;;;4969062;28;20181;-88
2023/09/19 11:44:06;;;;;;;6.40;2.20;;;22.70;86.40;;;;;;4994081;28;20226;-87
2023/09/19 11:46:59;;;;;;;5.17;2.27;;;22.70;87.40;;;;;;5038957;28;20173;-87
2023/09/19 11:49:32;;;;;;;7.47;2.00;;;22.70;87.30;;;;;;4986287;28;20177;-87
2023/09/19 11:52:05;;;;;;;4.40;1.90;;;22.70;86.90;;;;;;5007882;28;20207;-87
2023/09/19 11:54:32;;;;;;;7.13;2.13;;;22.60;86.80;;;;;;4996677;28;20571;-86
2023/09/19 11:56:59;;;;;;;5.03;2.23;;;22.60;87.00;;;;;;5007403;28;20200;-87
2023/09/19 11:59:29;;;;;;;4.47;2.03;;;22.60;86.90;;;;;;4994501;28;20555;-87
2023/09/19 12:02:06;;;;;;;5.97;2.10;;;22.60;86.70;;;;;;5007854;28;20239;-87
2023/09/19 12:04:39;;;;;;;6.57;2.10;;;22.70;86.60;;;;;;4997104;28;20181;-87
2023/09/19 12:07:18;;;;;;;5.77;1.90;;;22.60;86.70;;;;;;5027846;28;20172;-87
2023/09/19 12:10:05;;;;;;;4.73;2.10;;;22.60;86.80;;;;;;5012485;28;20271;-87
2023/09/19 12:12:32;;;;;;;6.23;2.17;;;22.60;86.50;;;;;;5039540;28;20177;-87
2023/09/19 12:14:58;;;;;;;4.63;2.37;;;22.60;85.80;;;;;;5026154;28;20199;-87
2023/09/19 12:17:39;;;;;;;5.13;1.87;;;22.70;86.60;;;;;;5005860;28;20212;-87
2023/09/19 12:20:14;;;;;;;4.83;2.10;;;22.60;86.30;;;;;;5010976;28;20224;-87
2023/09/19 12:22:46;;;;;;;5.30;2.20;;;22.60;86.40;;;;;;5006627;28;20276;-86
2023/09/19 12:25:17;;;;;;;4.13;2.07;;;22.60;84.90;;;;;;5001099;28;20413;-86
2023/09/19 12:27:52;;;;;;;5.13;2.20;;;22.60;84.60;;;;;;4984776;28;20205;-87
2023/09/19 12:30:20;;;;;;;5.13;2.00;;;22.60;84.50;;;;;;4998599;28;20175;-87
2023/09/19 12:32:50;;;;;;;7.67;2.00;;;22.60;85.70;;;;;;4986196;28;20185;-87
2023/09/19 12:35:35;;;;;;;4.83;2.20;;;22.60;85.80;;;;;;4995152;28;20192;-87
2023/09/19 12:38:03;;;;;;;3.87;1.90;;;22.60;85.50;;;;;;4998791;28;20446;-87
2023/09/19 12:40:32;;;;;;;4.40;1.97;;;22.60;85.10;;;;;;4982804;28;20797;-86
2023/09/19 12:43:02;;;;;;;4.80;1.93;;;22.60;83.30;;;;;;4986288;28;20555;-87
2023/09/19 12:45:28;;;;;;;3.50;2.03;;;22.60;82.90;;;;;;4995394;28;20161;-86
2023/09/19 12:48:32;;;;;;;6.50;2.50;;;22.60;84.20;;;;;;5020075;28;20170;-87
2023/09/19 12:51:12;;;;;;;8.17;2.57;;;22.50;82.90;;;;;;4999497;28;20168;-86
2023/09/19 12:53:50;;;;;;;4.37;2.30;;;22.50;83.50;;;;;;4987504;28;20181;-86
2023/09/19 12:56:18;;;;;;;4.67;2.17;;;22.50;81.90;;;;;;4999530;28;20208;-86
2023/09/19 12:58:55;;;;;;;7.57;2.13;;;22.50;82.30;;;;;;4985627;28;20170;-87
2023/09/19 13:01:27;;;;;;;4.73;2.20;;;22.50;83.10;;;;;;4996720;28;20176;-86
2023/09/19 13:04:26;;;;;;;4.23;2.00;;;22.50;82.20;;;;;;4984353;28;20316;-84
2023/09/19 13:06:52;;;;;;;7.30;2.30;;;22.50;81.90;;;;;;4995743;28;20195;-86
2023/09/19 13:09:20;;;;;;;3.50;1.80;;;22.50;81.80;;;;;;4983033;28;20169;-85
2023/09/19 13:11:47;;;;;;;3.83;2.07;;;22.50;81.70;;;;;;5014997;28;20179;-88
2023/09/19 13:14:37;;;;;;;4.70;2.23;;;22.50;81.70;;;;;;4986421;28;20173;-88